NORTHERN QUEENS  -  Air Quality Alert Air Quality Alert        SOUTHERN QUEENS  -  Air Quality Alert Air Quality Alert      

Active alerts

Northern Queens
  Details for Northern Queens Air Quality Alert
Southern Queens
  Details for Southern Queens Air Quality Alert


WXM80 ListenWXM80 Stop

You find our weather info also at:

UK Metoffice

WeatherCloud

Weather Underground

Northeastern Weather Network

AWEKAS

Citizen Weather Observer Program (CWOP)

HAMweather, WeatherForYou, PWS Weather


Weather Underground History page Text

Daily Summary for March 24, 2017 Units:  Metric    English   Both
« Previous Day
Next Day »
Daily Weekly Monthly Yearly Custom
  High: Low: Average:
Temperature: 10.9 °C -0.1 °C 5.7 °C
Dew Point: 4.1 °C -3.8 °C 0.1 °C
Humidity: 79 % 49 % 68 %
Wind Speed: 18.8 km/h 0 km/h 5.8 km/h
Wind Gust: 31.5 km/h - -
Wind:- - SSW
Pressure: 1033.1 hPa 1018.5 hPa -
Precipitation: 0 mm    
Historical Graphs
 
 
Tabular Data for March 24, 2017
Time Temperature Dew Point Pressure Wind Wind Speed Wind Gust Humidity Rainfall Rate (Hourly)
00:00 0.9 °C -3.7 °C 1032.7 hPa SSW 3.4 km/h 5.6 km/h 71 % 0 mm
00:05 0.9 °C -3.6 °C 1032.7 hPa SSW 2.6 km/h 5.6 km/h 72 % 0 mm
00:10 0.9 °C -3.6 °C 1032.7 hPa SSW 4.2 km/h 9.7 km/h 72 % 0 mm
00:15 0.9 °C -3.3 °C 1032.7 hPa SW 6.8 km/h 11.1 km/h 73 % 0 mm
00:20 0.9 °C -3.3 °C 1032.7 hPa SSW 3.9 km/h 9.3 km/h 73 % 0 mm
00:25 1 °C -3.3 °C 1032.7 hPa WSW 3.5 km/h 5.6 km/h 73 % 0 mm
00:30 1 °C -3.3 °C 1032.7 hPa SW 3.9 km/h 6.4 km/h 73 % 0 mm
00:35 1 °C -3.3 °C 1033.1 hPa SW 4.3 km/h 7.4 km/h 73 % 0 mm
00:40 1.1 °C -3.2 °C 1033.1 hPa SW 3.4 km/h 7.4 km/h 73 % 0 mm
00:45 1.1 °C -3.2 °C 1033.1 hPa WSW 1 km/h 5.6 km/h 73 % 0 mm
00:50 1.1 °C -3.2 °C 1033.1 hPa WSW 1.4 km/h 3.7 km/h 73 % 0 mm
00:55 1.1 °C -3.2 °C 1033.1 hPa WSW 1 km/h 3.7 km/h 73 % 0 mm
01:00 1 °C -3.5 °C 1033.1 hPa WSW 1 km/h 1.9 km/h 72 % 0 mm
01:05 1 °C -3.3 °C 1033.1 hPa WSW 2.6 km/h 5.6 km/h 73 % 0 mm
01:10 0.9 °C -3.6 °C 1033.1 hPa Calm     72 % 0 mm
01:15 0.9 °C -3.6 °C 1032.7 hPa Calm     72 % 0 mm
01:20 0.8 °C -3.7 °C 1032.7 hPa WSW 1 km/h 1.9 km/h 72 % 0 mm
01:25 0.7 °C -3.6 °C 1032.7 hPa WSW 0.3 km/h 3.7 km/h 73 % 0 mm
01:30 0.7 °C -3.6 °C 1032.4 hPa WSW 0.8 km/h 3.7 km/h 73 % 0 mm
01:35 0.6 °C -3.7 °C 1032.4 hPa WSW 2.4 km/h 5.6 km/h 73 % 0 mm
01:40 0.5 °C -3.8 °C 1032.4 hPa WSW 2.1 km/h 5.6 km/h 73 % 0 mm
01:45 0.4 °C -3.7 °C 1032.4 hPa SW 2.4 km/h 5.6 km/h 74 % 0 mm
01:50 0.4 °C -3.7 °C 1032.4 hPa SW 0.6 km/h 3.2 km/h 74 % 0 mm
01:55 0.4 °C -3.6 °C 1032.4 hPa SW 0.8 km/h 1.9 km/h 75 % 0 mm
02:00 0.4 °C -3.6 °C 1032.4 hPa SW 1.1 km/h 6.4 km/h 75 % 0 mm
02:05 0.3 °C -3.6 °C 1032.4 hPa Calm     75 % 0 mm
02:10 0.3 °C -3.6 °C 1032.4 hPa Calm     75 % 0 mm
02:15 0.3 °C -3.6 °C 1032.1 hPa Calm   1.6 km/h 75 % 0 mm
02:20 0.2 °C -3.5 °C 1032.4 hPa SW 1.3 km/h 3.2 km/h 76 % 0 mm
02:25 0.2 °C -3.6 °C 1032.4 hPa SW 1.3 km/h 3.7 km/h 76 % 0 mm
02:31 0.1 °C -3.6 °C 1032.7 hPa Calm     76 % 0 mm
02:36 0.1 °C -3.7 °C 1032.7 hPa SW 0.6 km/h 3.2 km/h 76 % 0 mm
02:41 0.1 °C -3.7 °C 1032.7 hPa SW 2.6 km/h 5.6 km/h 76 % 0 mm
02:46 0 °C -3.6 °C 1032.4 hPa Calm     77 % 0 mm
02:51 0 °C -3.6 °C 1032.7 hPa SSW 1.4 km/h 5.6 km/h 77 % 0 mm
02:56 -0.1 °C -3.6 °C 1032.7 hPa SSW 0.6 km/h 3.2 km/h 77 % 0 mm
03:01 -0.1 °C -3.4 °C 1032.4 hPa SSW 0.6 km/h 3.7 km/h 78 % 0 mm
03:06 -0.1 °C -3.4 °C 1032.4 hPa SSW 0.3 km/h 3.2 km/h 78 % 0 mm
03:11 -0.1 °C -3.3 °C 1032.4 hPa SSW 1.4 km/h 1.9 km/h 79 % 0 mm
03:16 0.1 °C -3.2 °C 1032.1 hPa SSW 1.9 km/h 3.7 km/h 79 % 0 mm
03:21 0.1 °C -3.1 °C 1032.1 hPa SSW 1.8 km/h 3.7 km/h 79 % 0 mm
03:26 0.2 °C -3.1 °C 1032.1 hPa SSW 1.1 km/h 3.7 km/h 79 % 0 mm
03:31 0.2 °C -3 °C 1032.1 hPa SSW 1.8 km/h 3.7 km/h 79 % 0 mm
03:36 0.2 °C -3 °C 1032.1 hPa SSW 1.4 km/h 1.9 km/h 79 % 0 mm
03:41 0.3 °C -2.9 °C 1031.7 hPa SSW 0.8 km/h 3.7 km/h 79 % 0 mm
03:46 0.3 °C -3.1 °C 1031.7 hPa Calm   5.6 km/h 78 % 0 mm
03:51 0.4 °C -2.8 °C 1031.4 hPa SSW 3.4 km/h 5.6 km/h 79 % 0 mm
03:53 0.4 °C -2.8 °C 1031.4 hPa SSW 2.9 km/h 3.7 km/h 79 % 0 mm
03:58 0.4 °C -2.8 °C 1031.4 hPa Calm   1.9 km/h 79 % 0 mm
04:03 0.3 °C -3.1 °C 1031.4 hPa SSW 0.3 km/h 3.7 km/h 78 % 0 mm
04:08 0.3 °C -3.1 °C 1031.4 hPa SSW 2.1 km/h 3.7 km/h 78 % 0 mm
04:13 0.3 °C -3.1 °C 1031.4 hPa SSW 1.4 km/h 3.7 km/h 78 % 0 mm
04:18 0.3 °C -3.1 °C 1031 hPa SSW 3.4 km/h 5.6 km/h 78 % 0 mm
04:23 0.3 °C -2.9 °C 1031 hPa SSW 2.1 km/h 3.7 km/h 79 % 0 mm
04:28 0.2 °C -3 °C 1031 hPa SSW 1.4 km/h 5.6 km/h 79 % 0 mm
04:33 0.2 °C -3.2 °C 1031.4 hPa SSW 1 km/h 3.7 km/h 78 % 0 mm
04:38 0.2 °C -3.2 °C 1031.4 hPa SSW 0.2 km/h 3.2 km/h 78 % 0 mm
04:44 0.2 °C -3.2 °C 1031 hPa SSW 1.6 km/h 5.6 km/h 78 % 0 mm
04:49 0.2 °C -3.2 °C 1031 hPa SSW 4.3 km/h 5.6 km/h 78 % 0 mm
04:54 0.1 °C -3.3 °C 1031 hPa South 3.7 km/h 9.3 km/h 78 % 0 mm
04:59 0.1 °C -3.3 °C 1031 hPa SSW 5.1 km/h 9.3 km/h 78 % 0 mm
05:04 0.2 °C -3.3 °C 1031 hPa South 4.3 km/h 8 km/h 77 % 0 mm
05:09 0.3 °C -3.4 °C 1031 hPa SSW 6.1 km/h 11.3 km/h 76 % 0 mm
05:14 0.4 °C -3.3 °C 1031 hPa SW 6.6 km/h 11.1 km/h 76 % 0 mm
05:19 0.6 °C -3.4 °C 1031.4 hPa South 4.8 km/h 7.4 km/h 75 % 0 mm
05:24 0.6 °C -3.3 °C 1031.4 hPa SSW 6.6 km/h 13 km/h 75 % 0 mm
05:29 0.8 °C -3.3 °C 1031.4 hPa SSW 8.5 km/h 13 km/h 74 % 0 mm
05:34 0.9 °C -3.4 °C 1031.7 hPa SW 4 km/h 8 km/h 73 % 0 mm
05:37 0.9 °C -3.3 °C 1031.4 hPa SW 7.2 km/h 11.1 km/h 73 % 0 mm
05:42 1.1 °C -3.4 °C 1031.4 hPa WSW 5.3 km/h 13 km/h 72 % 0 mm
05:47 1.2 °C -3.3 °C 1031.7 hPa SSW 8.4 km/h 16.7 km/h 72 % 0 mm
05:52 1.3 °C -3.4 °C 1031.7 hPa SW 7.4 km/h 11.3 km/h 71 % 0 mm
05:57 1.3 °C -3.3 °C 1031.7 hPa SSW 8.4 km/h 14.8 km/h 71 % 0 mm
06:02 1.4 °C -3.2 °C 1031.7 hPa SW 5.6 km/h 6.4 km/h 71 % 0 mm
06:07 1.5 °C -3.2 °C 1031.7 hPa SW 4.7 km/h 7.4 km/h 71 % 0 mm
06:12 1.6 °C -3.1 °C 1031.4 hPa SSW 4.5 km/h 7.4 km/h 71 % 0 mm
06:17 1.6 °C -3.1 °C 1031.4 hPa South 3.5 km/h 9.3 km/h 71 % 0 mm
06:22 1.6 °C -3.1 °C 1031 hPa SSW 4.7 km/h 6.4 km/h 71 % 0 mm
06:27 1.6 °C -3.1 °C 1031 hPa SSW 5 km/h 7.4 km/h 71 % 0 mm
06:32 1.6 °C -3.1 °C 1031 hPa SW 4.5 km/h 11.1 km/h 71 % 0 mm
06:37 1.6 °C -3.1 °C 1030.7 hPa SW 5.1 km/h 7.4 km/h 71 % 0 mm
06:42 1.6 °C -3.1 °C 1031 hPa South 5.5 km/h 9.3 km/h 71 % 0 mm
06:52 1.6 °C -2.9 °C 1030.7 hPa SSW 4.7 km/h 7.4 km/h 72 % 0 mm
06:57 1.7 °C -2.7 °C 1030.7 hPa SSW 2.7 km/h 11.1 km/h 73 % 0 mm
07:02 1.7 °C -2.6 °C 1031 hPa SW 2.9 km/h 5.6 km/h 73 % 0 mm
07:07 1.8 °C -2.5 °C 1031 hPa SW 2.9 km/h 7.4 km/h 73 % 0 mm
07:12 1.9 °C -2.4 °C 1031.4 hPa SW 3.1 km/h 5.6 km/h 73 % 0 mm
07:17 2 °C -2.2 °C 1031 hPa WSW 3.1 km/h 13 km/h 74 % 0 mm
07:22 2.1 °C -2.1 °C 1031.4 hPa SW 1.1 km/h 3.7 km/h 74 % 0 mm
07:27 2.2 °C -1.9 °C 1031 hPa SW 6.9 km/h 11.1 km/h 74 % 0 mm
07:32 2.3 °C -1.9 °C 1031 hPa SW 3.4 km/h 6.4 km/h 74 % 0 mm
07:37 2.3 °C -1.8 °C 1030.7 hPa SSW 7.1 km/h 9.3 km/h 74 % 0 mm
07:42 2.4 °C -1.6 °C 1030.7 hPa SSW 6.4 km/h 8 km/h 75 % 0 mm
07:47 2.6 °C -1.4 °C 1030.7 hPa SSW 2.9 km/h 8 km/h 75 % 0 mm
07:52 2.7 °C -1.3 °C 1030.7 hPa SSW 5 km/h 9.3 km/h 75 % 0 mm
07:57 2.8 °C -1.2 °C 1030.7 hPa SSW 5.1 km/h 11.1 km/h 75 % 0 mm
08:02 2.9 °C -1.1 °C 1030.7 hPa SW 1.8 km/h 7.4 km/h 75 % 0 mm
08:07 3.1 °C -0.9 °C 1030.7 hPa SW 6.9 km/h 9.3 km/h 75 % 0 mm
08:12 3.2 °C -0.9 °C 1030.4 hPa SW 7.7 km/h 14.8 km/h 74 % 0 mm
08:17 3.3 °C -0.9 °C 1030.7 hPa South 7.7 km/h 11.1 km/h 74 % 0 mm
08:22 3.4 °C -0.8 °C 1030.7 hPa SW 1.9 km/h 5.6 km/h 74 % 0 mm
08:23 3.4 °C -0.8 °C 1030.7 hPa SW 3.5 km/h 5.6 km/h 74 % 0 mm
08:28 3.6 °C -0.7 °C 1030.7 hPa South 5 km/h 12.9 km/h 74 % 0 mm
08:30 3.6 °C -0.6 °C 1030.7 hPa SSW 6.9 km/h 11.1 km/h 74 % 0 mm
08:35 3.7 °C -0.3 °C 1030.4 hPa SW 1.1 km/h 11.1 km/h 75 % 0 mm
08:40 3.8 °C -0.1 °C 1030.4 hPa South 6.8 km/h 11.1 km/h 76 % 0 mm
08:45 3.9 °C 0.1 °C 1030.4 hPa SSW 8.4 km/h 11.1 km/h 76 % 0 mm
08:51 4.1 °C 0.2 °C 1030.4 hPa SSW 7.6 km/h 11.1 km/h 76 % 0 mm
08:56 4.3 °C 0.4 °C 1030 hPa South 4.7 km/h 9.7 km/h 76 % 0 mm
09:01 4.6 °C 0.5 °C 1030 hPa WSW 6.4 km/h 13 km/h 75 % 0 mm
09:06 4.8 °C 0.4 °C 1030 hPa SSW 8.2 km/h 13 km/h 73 % 0 mm
09:11 5.1 °C 0.5 °C 1030 hPa SSW 6.9 km/h 16.7 km/h 72 % 0 mm
09:16 5.4 °C 0.6 °C 1029.7 hPa SSW 12.7 km/h 20.9 km/h 71 % 0 mm
09:21 5.8 °C 0.5 °C 1030 hPa South 10 km/h 18.5 km/h 69 % 0 mm
09:26 6.1 °C 0.2 °C 1029.7 hPa WSW 14 km/h 24.1 km/h 66 % 0 mm
09:31 6.2 °C -0.2 °C 1030 hPa West 8.4 km/h 14.8 km/h 64 % 0 mm
09:36 6.2 °C -0.3 °C 1030 hPa SW 10 km/h 19.3 km/h 63 % 0 mm
09:41 6.3 °C -0.5 °C 1030 hPa South 14.2 km/h 22.2 km/h 62 % 0 mm
09:46 6.3 °C -0.5 °C 1030 hPa SSW 13 km/h 20.4 km/h 62 % 0 mm
09:51 6.3 °C -0.3 °C 1030 hPa South 9.3 km/h 14.8 km/h 63 % 0 mm
09:56 6.3 °C -0.7 °C 1029.7 hPa South 10 km/h 17.7 km/h 61 % 0 mm
10:01 6.7 °C -0.3 °C 1029.7 hPa SSW 12.9 km/h 20.4 km/h 61 % 0 mm
10:06 7.1 °C -0.2 °C 1029.7 hPa SW 10.8 km/h 22.5 km/h 60 % 0 mm
10:11 7.1 °C -0.8 °C 1029.7 hPa SW 10.6 km/h 20.4 km/h 57 % 0 mm
10:16 7.1 °C -0.9 °C 1029.3 hPa South 13.5 km/h 17.7 km/h 57 % 0 mm
10:21 7 °C -0.9 °C 1029 hPa South 16.7 km/h 31.5 km/h 57 % 0 mm
10:26 7.1 °C -1.1 °C 1029 hPa South 13.2 km/h 24.1 km/h 56 % 0 mm
10:31 7.2 °C -1.2 °C 1029 hPa SSW 15 km/h 20.9 km/h 55 % 0 mm
10:37 7.3 °C -1.1 °C 1029 hPa SSW 8.9 km/h 16.7 km/h 55 % 0 mm
10:42 7.5 °C -0.7 °C 1028.7 hPa SW 10.1 km/h 17.7 km/h 56 % 0 mm
10:47 7.7 °C -1.8 °C 1028.7 hPa SW 18.8 km/h 29.6 km/h 51 % 0 mm
10:52 7.8 °C -2 °C 1028.7 hPa SSW 8.2 km/h 18.5 km/h 50 % 0 mm
10:57 7.7 °C -2.3 °C 1028.7 hPa SSW 13.7 km/h 29.6 km/h 49 % 0 mm
11:07 7.7 °C -1.6 °C 1028.7 hPa South 9.8 km/h 20.4 km/h 52 % 0 mm
11:12 7.7 °C -1.3 °C 1028.7 hPa South 6.4 km/h 11.1 km/h 53 % 0 mm
11:17 7.6 °C -1.4 °C 1028.7 hPa South 15.4 km/h 27.8 km/h 53 % 0 mm
11:22 7.6 °C -1.4 °C 1028.7 hPa SSW 12.2 km/h 20.4 km/h 53 % 0 mm
11:32 7.7 °C -1 °C 1028.3 hPa South 12.4 km/h 20.4 km/h 54 % 0 mm
11:37 7.7 °C -1 °C 1028.3 hPa SSW 14.5 km/h 25.9 km/h 54 % 0 mm
11:42 7.7 °C -1 °C 1028.3 hPa South 14.6 km/h 24.1 km/h 54 % 0 mm
11:47 7.7 °C -1 °C 1028 hPa SSW 13.8 km/h 27.8 km/h 54 % 0 mm
11:52 7.7 °C -1.1 °C 1028.3 hPa SW 15.9 km/h 24.1 km/h 54 % 0 mm
11:57 7.7 °C -0.8 °C 1028 hPa SSW 9.8 km/h 13 km/h 55 % 0 mm
12:02 7.7 °C -1.1 °C 1028 hPa SW 15.4 km/h 29.6 km/h 54 % 0 mm
12:07 7.6 °C -1.1 °C 1028 hPa SSW 6.1 km/h 13 km/h 54 % 0 mm
12:12 7.6 °C -0.9 °C 1027.3 hPa SSW 16.4 km/h 27.8 km/h 55 % 0 mm
12:17 7.6 °C -0.7 °C 1027.3 hPa SW 10 km/h 16.7 km/h 56 % 0 mm
12:22 7.7 °C -0.3 °C 1027.3 hPa SSW 9.3 km/h 18.5 km/h 57 % 0 mm
12:27 7.8 °C -0.2 °C 1027 hPa SW 2.7 km/h 11.1 km/h 57 % 0 mm
12:32 8.1 °C -0.2 °C 1026.6 hPa SSW 12.1 km/h 16.7 km/h 56 % 0 mm
12:37 8.2 °C -0.3 °C 1026.3 hPa SSW 11.3 km/h 19.3 km/h 55 % 0 mm
12:42 8.4 °C -0.2 °C 1026 hPa SSW 12.9 km/h 24.1 km/h 55 % 0 mm
12:47 8.5 °C 0.2 °C 1026 hPa South 8.9 km/h 9.3 km/h 56 % 0 mm
12:52 8.6 °C -0.2 °C 1026 hPa SSW 9.7 km/h 22.5 km/h 54 % 0 mm
12:58 8.5 °C -0.3 °C 1026 hPa South 10.1 km/h 18.5 km/h 54 % 0 mm
13:03 8.4 °C -0.1 °C 1026 hPa SSW 7.7 km/h 16.7 km/h 55 % 0 mm
13:08 8.6 °C 0.1 °C 1026 hPa SW 7.2 km/h 16.1 km/h 55 % 0 mm
13:13 8.7 °C -0.1 °C 1025.3 hPa SSW 15 km/h 24.1 km/h 54 % 0 mm
13:18 8.7 °C 0.7 °C 1025.3 hPa WSW 5.1 km/h 14.8 km/h 57 % 0 mm
13:23 8.8 °C 1.4 °C 1025.6 hPa SSW 6 km/h 11.1 km/h 60 % 0 mm
13:28 8.8 °C 1.9 °C 1025.3 hPa SSW 2.9 km/h 7.4 km/h 62 % 0 mm
13:33 8.8 °C 1.7 °C 1024.9 hPa SSW 10.8 km/h 20.4 km/h 61 % 0 mm
13:38 8.6 °C 1.1 °C 1024.6 hPa SW 14.5 km/h 22.2 km/h 59 % 0 mm
13:43 8.4 °C 1.3 °C 1023.9 hPa South 7.1 km/h 11.3 km/h 61 % 0 mm
13:48 8.2 °C 1.1 °C 1023.9 hPa South 10.5 km/h 14.8 km/h 61 % 0 mm
13:49 8.2 °C 1.1 °C 1023.9 hPa SW 8.5 km/h 16.7 km/h 61 % 0 mm
13:54 8.2 °C 0.9 °C 1023.9 hPa SW 11.4 km/h 24.1 km/h 60 % 0 mm
13:59 8.2 °C 1.1 °C 1023.6 hPa South 6.4 km/h 11.1 km/h 61 % 0 mm
14:04 8.2 °C 1.1 °C 1023.6 hPa South 11.6 km/h 20.4 km/h 61 % 0 mm
14:09 8.2 °C 1.3 °C 1023.2 hPa SSE 7.2 km/h 14.5 km/h 62 % 0 mm
14:14 8.2 °C 1.3 °C 1023.2 hPa SW 3.2 km/h 9.3 km/h 62 % 0 mm
14:19 8.2 °C 1.3 °C 1023.2 hPa SW 7.1 km/h 13 km/h 62 % 0 mm
14:24 8.2 °C 1.1 °C 1022.9 hPa SSW 9 km/h 18.5 km/h 61 % 0 mm
14:29 8.1 °C 1.3 °C 1023.2 hPa South 4.3 km/h 9.3 km/h 62 % 0 mm
14:34 8.1 °C 1.1 °C 1022.9 hPa SW 6.3 km/h 11.1 km/h 61 % 0 mm
14:39 8.2 °C 1.1 °C 1022.6 hPa SSW 8 km/h 13 km/h 61 % 0 mm
14:44 8.1 °C 1.1 °C 1022.6 hPa SW 6.1 km/h 16.7 km/h 61 % 0 mm
14:49 8.1 °C 1.3 °C 1022.2 hPa South 5.6 km/h 8 km/h 62 % 0 mm
14:54 8.1 °C 1.1 °C 1022.2 hPa SW 6.9 km/h 9.7 km/h 61 % 0 mm
14:59 8.3 °C 1.4 °C 1022.2 hPa SW 7.6 km/h 14.8 km/h 62 % 0 mm
15:00 8.3 °C 1.2 °C 1022.2 hPa SSW 5 km/h 5.6 km/h 61 % 0 mm
15:05 8.3 °C 1 °C 1021.9 hPa SW 2.4 km/h 11.1 km/h 60 % 0 mm
15:11 8.4 °C 1.1 °C 1021.9 hPa SSE 7.1 km/h 14.8 km/h 60 % 0 mm
15:16 8.3 °C 1 °C 1021.9 hPa WSW 4.7 km/h 11.3 km/h 60 % 0 mm
15:21 8.3 °C 0.8 °C 1021.9 hPa SSW 11.9 km/h 22.2 km/h 59 % 0 mm
15:26 8.4 °C 1.1 °C 1021.6 hPa SW 5.8 km/h 11.1 km/h 60 % 0 mm
15:31 8.4 °C 1.1 °C 1021.6 hPa SW 8.7 km/h 18.5 km/h 60 % 0 mm
15:36 8.6 °C 1.2 °C 1021.6 hPa SSW 4.3 km/h 11.1 km/h 60 % 0 mm
15:41 8.7 °C 1.3 °C 1021.2 hPa South 8.9 km/h 13 km/h 60 % 0 mm
15:46 8.9 °C 1.6 °C 1021.2 hPa SW 8 km/h 18.5 km/h 60 % 0 mm
15:51 9.1 °C 1.3 °C 1020.9 hPa SSW 8.9 km/h 29.6 km/h 58 % 0 mm
15:56 9.3 °C 1.7 °C 1020.9 hPa SSW 10.1 km/h 16.7 km/h 59 % 0 mm
16:01 9.4 °C 1.8 °C 1020.9 hPa South 13 km/h 22.5 km/h 59 % 0 mm
16:06 9.6 °C 1.7 °C 1020.9 hPa SSW 10.1 km/h 11.3 km/h 58 % 0 mm
16:11 9.7 °C 1.8 °C 1020.5 hPa SSW 7.9 km/h 14.8 km/h 58 % 0 mm
16:16 9.8 °C 1.9 °C 1020.5 hPa South 12.2 km/h 19.3 km/h 58 % 0 mm
16:21 9.9 °C 2 °C 1020.5 hPa South 12.7 km/h 18.5 km/h 58 % 0 mm
16:26 9.9 °C 2.1 °C 1020.5 hPa SSW 7.2 km/h 9.7 km/h 58 % 0 mm
16:31 10.1 °C 2.2 °C 1020.5 hPa SW 6.4 km/h 9.7 km/h 58 % 0 mm
16:36 10.2 °C 2.3 °C 1020.2 hPa SW 3.5 km/h 11.3 km/h 58 % 0 mm
16:41 10.4 °C 2.5 °C 1020.2 hPa SW 12.4 km/h 20.9 km/h 58 % 0 mm
16:46 10.6 °C 2.6 °C 1020.2 hPa SSW 9 km/h 17.7 km/h 58 % 0 mm
16:51 10.7 °C 2.3 °C 1020.2 hPa SW 6.1 km/h 13 km/h 56 % 0 mm
16:57 10.8 °C 2.6 °C 1019.9 hPa SW 5.1 km/h 7.4 km/h 57 % 0 mm
17:02 10.8 °C 2.4 °C 1019.9 hPa SW 5.8 km/h 9.3 km/h 56 % 0 mm
17:07 10.9 °C 2.4 °C 1019.9 hPa SW 10.9 km/h 14.8 km/h 56 % 0 mm
17:12 10.9 °C 2.4 °C 1019.9 hPa South 4.8 km/h 14.8 km/h 56 % 0 mm
17:17 10.9 °C 3 °C 1019.9 hPa WSW 4 km/h 6.4 km/h 58 % 0 mm
17:22 10.9 °C 2.5 °C 1019.9 hPa SW 12.2 km/h 18.5 km/h 56 % 0 mm
17:27 10.9 °C 2.7 °C 1019.9 hPa SW 4 km/h 9.7 km/h 57 % 0 mm
17:32 10.9 °C 2.7 °C 1019.9 hPa WSW 6.8 km/h 14.5 km/h 57 % 0 mm
17:37 10.9 °C 2.7 °C 1019.9 hPa South 4.5 km/h 7.4 km/h 57 % 0 mm
17:42 10.8 °C 2.8 °C 1019.9 hPa South 1.8 km/h 5.6 km/h 58 % 0 mm
17:47 10.7 °C 2.8 °C 1019.9 hPa SSW 2.1 km/h 6.4 km/h 58 % 0 mm
17:52 10.7 °C 2.7 °C 1019.5 hPa SSW 4.5 km/h 9.3 km/h 58 % 0 mm
17:57 10.6 °C 2.6 °C 1019.5 hPa South 2.7 km/h 9.3 km/h 58 % 0 mm
18:02 10.4 °C 2.8 °C 1019.5 hPa SSW 5 km/h 9.7 km/h 59 % 0 mm
18:07 10.3 °C 2.9 °C 1019.5 hPa SSW 1.9 km/h 3.7 km/h 60 % 0 mm
18:12 10.3 °C 2.8 °C 1019.5 hPa South 3.7 km/h 9.7 km/h 60 % 0 mm
18:17 10.2 °C 2.8 °C 1019.5 hPa South 4.7 km/h 7.4 km/h 60 % 0 mm
18:22 10.1 °C 2.9 °C 1019.2 hPa SSE 2.9 km/h 7.4 km/h 61 % 0 mm
18:24 10.1 °C 2.9 °C 1019.2 hPa SE 4.7 km/h 12.9 km/h 61 % 0 mm
18:29 9.9 °C 3 °C 1018.8 hPa SSW 6.8 km/h 11.1 km/h 62 % 0 mm
18:34 9.8 °C 2.9 °C 1018.8 hPa SSW 6.6 km/h 13 km/h 62 % 0 mm
18:39 9.7 °C 3 °C 1018.8 hPa South 4.8 km/h 7.4 km/h 63 % 0 mm
18:45 9.7 °C 2.9 °C 1018.5 hPa South 3.1 km/h 9.7 km/h 63 % 0 mm
18:50 9.6 °C 3.1 °C 1018.5 hPa South 3.1 km/h 7.4 km/h 64 % 0 mm
18:55 9.4 °C 2.9 °C 1018.5 hPa South 3.4 km/h 13 km/h 64 % 0 mm
18:59 9.3 °C 3.1 °C 1018.5 hPa SSW 3.4 km/h 6.4 km/h 65 % 0 mm
19:04 9.2 °C 3 °C 1018.5 hPa SSW 7.6 km/h 14.8 km/h 65 % 0 mm
19:09 9 °C 3 °C 1018.5 hPa SSE 5.3 km/h 11.1 km/h 66 % 0 mm
19:14 8.9 °C 3.1 °C 1018.5 hPa SSW 4.2 km/h 8 km/h 67 % 0 mm
19:19 8.8 °C 3 °C 1018.5 hPa SSE 5.1 km/h 11.1 km/h 67 % 0 mm
19:24 8.7 °C 3.1 °C 1018.5 hPa SSW 5 km/h 7.4 km/h 68 % 0 mm
19:29 8.6 °C 3.2 °C 1018.5 hPa South 3.2 km/h 9.3 km/h 69 % 0 mm
19:34 8.4 °C 3.1 °C 1018.5 hPa SSW 2.7 km/h 5.6 km/h 69 % 0 mm
19:39 8.3 °C 3 °C 1018.5 hPa SSW 0.8 km/h 3.7 km/h 69 % 0 mm
19:44 8.3 °C 3.1 °C 1018.5 hPa South 2.4 km/h 5.6 km/h 70 % 0 mm
19:49 8.2 °C 3.2 °C 1018.8 hPa SSW 1.6 km/h 5.6 km/h 71 % 0 mm
19:54 8.1 °C 3.1 °C 1018.8 hPa SW 6.1 km/h 9.3 km/h 71 % 0 mm
19:59 8 °C 3.3 °C 1018.8 hPa SSE 5.6 km/h 9.3 km/h 72 % 0 mm
20:04 7.9 °C 3.4 °C 1018.8 hPa SW 3.9 km/h 7.4 km/h 73 % 0 mm
20:09 7.8 °C 3.3 °C 1018.8 hPa SW 4 km/h 5.6 km/h 73 % 0 mm
20:14 7.8 °C 3.2 °C 1018.8 hPa South 3.4 km/h 5.6 km/h 73 % 0 mm
20:19 7.7 °C 3.4 °C 1018.8 hPa SSW 5.3 km/h 8 km/h 74 % 0 mm
20:24 7.7 °C 3.3 °C 1018.8 hPa South 3.2 km/h 9.3 km/h 74 % 0 mm
20:29 7.6 °C 3.4 °C 1019.2 hPa SW 3.9 km/h 6.4 km/h 75 % 0 mm
20:34 7.6 °C 3.4 °C 1019.2 hPa SW 4 km/h 6.4 km/h 75 % 0 mm
20:39 7.5 °C 3.3 °C 1019.2 hPa WSW 1.4 km/h 3.7 km/h 75 % 0 mm
20:44 7.4 °C 3.3 °C 1019.5 hPa WSW 2.9 km/h 5.6 km/h 75 % 0 mm
20:49 7.4 °C 3.5 °C 1019.5 hPa SW 1.1 km/h 1.9 km/h 76 % 0 mm
20:54 7.4 °C 3.5 °C 1019.5 hPa SW 1.1 km/h 4.8 km/h 76 % 0 mm
20:59 7.4 °C 3.5 °C 1019.5 hPa SW 0.3 km/h 3.7 km/h 76 % 0 mm
21:04 7.4 °C 3.4 °C 1019.5 hPa SW 2.1 km/h 5.6 km/h 76 % 0 mm
21:09 7.4 °C 3.4 °C 1019.5 hPa Calm     76 % 0 mm
21:14 7.4 °C 3.4 °C 1019.9 hPa SW 0.8 km/h 3.2 km/h 76 % 0 mm
21:19 7.4 °C 3.6 °C 1019.5 hPa SW 0.2 km/h 1.9 km/h 77 % 0 mm
21:24 7.3 °C 3.4 °C 1019.5 hPa SW 0.3 km/h 5.6 km/h 76 % 0 mm
21:29 7.3 °C 3.6 °C 1019.5 hPa SW 0.5 km/h 3.7 km/h 77 % 0 mm
21:34 7.3 °C 3.6 °C 1019.5 hPa SW 3.2 km/h 7.4 km/h 77 % 0 mm
21:39 7.3 °C 3.7 °C 1019.5 hPa SW 0.8 km/h 5.6 km/h 78 % 0 mm
21:44 7.2 °C 3.7 °C 1019.9 hPa SW 5.5 km/h 7.4 km/h 78 % 0 mm
21:49 7.2 °C 3.8 °C 1019.5 hPa SSW 2.9 km/h 5.6 km/h 79 % 0 mm
21:54 7.2 °C 3.8 °C 1019.5 hPa SW 3.4 km/h 5.6 km/h 79 % 0 mm
21:59 7.2 °C 3.8 °C 1019.5 hPa WSW 3.5 km/h 9.7 km/h 79 % 0 mm
22:04 7.2 °C 3.8 °C 1019.5 hPa SW 2.6 km/h 5.6 km/h 79 % 0 mm
22:09 7.3 °C 3.9 °C 1019.5 hPa SSW 2.7 km/h 5.6 km/h 79 % 0 mm
22:15 7.3 °C 3.9 °C 1019.2 hPa SSW 3.2 km/h 6.4 km/h 79 % 0 mm
22:20 7.4 °C 4 °C 1019.2 hPa SSW 5.1 km/h 7.4 km/h 79 % 0 mm
22:25 7.4 °C 3.8 °C 1019.5 hPa SW 4 km/h 14.8 km/h 78 % 0 mm
22:30 7.7 °C 3.9 °C 1019.5 hPa SSW 7.4 km/h 13 km/h 77 % 0 mm
22:35 7.9 °C 3.9 °C 1019.2 hPa SSW 6.8 km/h 13 km/h 76 % 0 mm
22:40 8.1 °C 4.1 °C 1019.2 hPa SSW 7.9 km/h 11.1 km/h 76 % 0 mm
22:45 8.3 °C 3.9 °C 1018.8 hPa SSW 7.2 km/h 11.1 km/h 74 % 0 mm
22:50 8.4 °C 4.1 °C 1018.8 hPa SW 2.9 km/h 8 km/h 74 % 0 mm
22:55 8.6 °C 4 °C 1018.8 hPa SW 8.2 km/h 11.1 km/h 73 % 0 mm
22:57 8.6 °C 3.8 °C 1018.8 hPa SW 8 km/h 13 km/h 72 % 0 mm
23:02 8.7 °C 3.9 °C 1018.8 hPa SSW 6.6 km/h 11.1 km/h 72 % 0 mm
23:07 8.9 °C 3.9 °C 1018.5 hPa SW 10.8 km/h 18.5 km/h 71 % 0 mm
23:12 8.9 °C 3.8 °C 1018.8 hPa SSW 7.4 km/h 11.1 km/h 70 % 0 mm
23:17 9.1 °C 3.9 °C 1018.5 hPa West 9.2 km/h 13 km/h 70 % 0 mm
23:22 9.2 °C 3.8 °C 1018.5 hPa SSW 6.3 km/h 12.9 km/h 69 % 0 mm
23:27 9.3 °C 3.7 °C 1018.5 hPa SW 6 km/h 9.3 km/h 68 % 0 mm
23:32 9.4 °C 3.8 °C 1018.5 hPa SSW 6.6 km/h 11.1 km/h 68 % 0 mm
23:37 9.4 °C 3.8 °C 1018.5 hPa SW 8.5 km/h 14.8 km/h 68 % 0 mm
23:42 9.5 °C 3.9 °C 1018.5 hPa WSW 8.5 km/h 16.7 km/h 68 % 0 mm
23:47 9.5 °C 3.9 °C 1018.5 hPa SW 9 km/h 9.7 km/h 68 % 0 mm
23:52 9.6 °C 3.7 °C 1018.5 hPa SW 9.5 km/h 11.3 km/h 67 % 0 mm
23:57 9.6 °C 3.7 °C 1018.5 hPa SW 10.6 km/h 18.5 km/h 67 % 0 mm
Crab Meadow Weather
Compliments of Weather Underground - 3 mb

Script developed by  Jim McMurry - jmcmurry@mwt.net Adapted for the template by  Wim van der Kuil - Leuven-Template.eu

Weather Terms: Tornado - A violently rotating column of air, from a thunderstorm, in contact with the ground.